createdAt,value
2022-10-18T00:02:46.797Z,27.38
2022-10-18T00:05:50.007Z,26.35
2022-10-18T00:08:52.517Z,27.75
2022-10-18T00:11:55.414Z,26.73
2022-10-18T00:14:57.796Z,26.42
2022-10-18T00:18:00.187Z,24.70
2022-10-18T00:21:22.795Z,26.83
2022-10-18T00:24:25.171Z,27.02
2022-10-18T00:27:29.712Z,29.67
2022-10-18T00:30:32.192Z,39.53
2022-10-18T00:33:34.557Z,33.08
2022-10-18T00:36:37.014Z,32.05
2022-10-18T00:39:39.509Z,29.23
2022-10-18T00:42:41.834Z,27.03
2022-10-18T00:45:44.325Z,29.02
2022-10-18T00:48:46.762Z,41.72
2022-10-18T00:52:11.820Z,41.40
2022-10-18T00:55:14.311Z,43.47
2022-10-18T00:58:17.490Z,40.53
2022-10-18T01:01:22.269Z,44.97
2022-10-18T01:04:27.086Z,41.40
2022-10-18T01:07:35.516Z,38.88
2022-10-18T01:10:47.831Z,40.42
2022-10-18T01:14:11.234Z,38.87
2022-10-18T01:17:19.338Z,41.13
2022-10-18T01:20:55.752Z,44.28
2022-10-18T01:24:16.443Z,33.00
2022-10-18T01:27:24.504Z,34.35
2022-10-18T01:30:33.529Z,38.70
2022-10-18T01:33:43.193Z,38.03
2022-10-18T01:36:51.312Z,31.25
2022-10-18T01:39:55.208Z,32.83
2022-10-18T01:42:57.629Z,28.10
2022-10-18T01:46:00.702Z,28.70
2022-10-18T01:49:04.204Z,27.50
2022-10-18T01:55:14.548Z,31.40
2022-10-18T01:58:26.102Z,30.13
2022-10-18T02:01:37.615Z,25.80
2022-10-18T02:04:59.067Z,27.65
2022-10-18T02:08:23.758Z,27.15
2022-10-18T02:11:28.164Z,27.58
2022-10-18T02:14:30.851Z,27.30
2022-10-18T02:17:33.512Z,25.07
2022-10-18T02:20:36.680Z,28.63
2022-10-18T02:23:39.221Z,25.80
2022-10-18T02:26:42.110Z,26.50
2022-10-18T02:29:44.680Z,24.05
2022-10-18T02:32:58.784Z,25.93
2022-10-18T02:36:06.572Z,26.77
2022-10-18T02:39:16.566Z,26.90
2022-10-18T02:42:18.955Z,22.90
2022-10-18T02:45:21.428Z,23.77
2022-10-18T02:48:23.870Z,26.57
2022-10-18T02:51:26.248Z,24.63
2022-10-18T02:54:28.741Z,25.75
2022-10-18T02:57:31.462Z,27.05
2022-10-18T03:00:34.228Z,28.67
2022-10-18T03:03:36.561Z,26.27
2022-10-18T03:06:38.979Z,27.25
2022-10-18T03:09:41.335Z,25.25
2022-10-18T03:12:43.667Z,27.40
2022-10-18T03:15:47.924Z,27.88
2022-10-18T03:18:50.326Z,26.57
2022-10-18T03:21:52.729Z,25.50
2022-10-18T03:24:55.116Z,34.45
2022-10-18T03:27:57.471Z,33.28
2022-10-18T03:31:02.097Z,32.42
2022-10-18T03:34:04.840Z,36.17
2022-10-18T03:37:07.221Z,44.33
2022-10-18T03:40:10.177Z,31.58
2022-10-18T03:43:13.125Z,34.72
2022-10-18T03:46:15.567Z,29.25
2022-10-18T03:49:17.907Z,25.17
2022-10-18T03:52:20.267Z,32.92
2022-10-18T03:55:22.640Z,37.08
2022-10-18T03:58:25.192Z,35.08
2022-10-18T04:01:27.746Z,37.25
2022-10-18T04:04:30.159Z,30.77
2022-10-18T04:07:32.562Z,35.75
2022-10-18T04:10:37.587Z,33.20
2022-10-18T04:13:40.155Z,29.85
2022-10-18T04:16:42.567Z,33.28
2022-10-18T04:19:44.980Z,61.47
2022-10-18T04:22:48.454Z,89.82
2022-10-18T04:25:50.826Z,45.25
2022-10-18T04:28:53.299Z,32.30
2022-10-18T04:31:55.784Z,31.23
2022-10-18T04:34:58.172Z,27.20
2022-10-18T04:38:00.529Z,29.55
2022-10-18T04:41:04.160Z,31.55
2022-10-18T04:44:06.541Z,28.50
2022-10-18T04:47:08.917Z,29.90
2022-10-18T04:50:11.239Z,35.03
2022-10-18T04:53:13.613Z,30.30
2022-10-18T04:56:16.716Z,32.70
2022-10-18T04:59:19.288Z,34.28
2022-10-18T05:02:21.929Z,34.22
2022-10-18T05:05:27.031Z,37.23
2022-10-18T05:08:36.523Z,34.40
2022-10-18T05:11:39.039Z,32.90
2022-10-18T05:14:41.737Z,58.50
2022-10-18T05:17:44.228Z,36.40
2022-10-18T05:20:47.005Z,30.17
2022-10-18T05:23:49.409Z,26.15
2022-10-18T05:26:51.771Z,29.38
2022-10-18T05:29:54.140Z,24.05
2022-10-18T05:32:56.456Z,30.60
2022-10-18T05:35:59.171Z,33.83
2022-10-18T05:39:05.262Z,30.50
2022-10-18T05:42:08.728Z,29.23
2022-10-18T05:45:11.108Z,26.45
2022-10-18T05:48:13.460Z,31.23
2022-10-18T05:51:15.880Z,31.63
2022-10-18T05:54:18.311Z,38.20
2022-10-18T05:57:20.743Z,33.80
2022-10-18T06:00:23.143Z,86.82
2022-10-18T06:03:27.494Z,83.65
2022-10-18T06:06:30.960Z,43.57
2022-10-18T06:09:33.417Z,47.22
2022-10-18T06:12:35.816Z,64.07
2022-10-18T06:15:38.186Z,75.32
2022-10-18T06:18:41.032Z,54.55
2022-10-18T06:21:43.833Z,35.17
2022-10-18T06:24:46.153Z,35.63
2022-10-18T06:27:48.490Z,34.85
2022-10-18T06:30:50.963Z,33.08
2022-10-18T06:33:53.264Z,30.88
2022-10-18T06:36:56.544Z,31.83
2022-10-18T06:40:01.043Z,32.47
2022-10-18T06:43:20.535Z,31.27
2022-10-18T06:46:24.116Z,34.35
2022-10-18T06:49:26.421Z,65.68
2022-10-18T06:52:29.629Z,36.27
2022-10-18T06:55:32.411Z,34.22
2022-10-18T06:58:35.507Z,31.17
2022-10-18T07:01:38.235Z,34.35
2022-10-18T07:04:40.669Z,30.80
2022-10-18T07:07:42.988Z,29.73
2022-10-18T07:10:53.137Z,22.73
2022-10-18T07:14:02.289Z,26.00
2022-10-18T07:17:04.699Z,21.05
2022-10-18T07:20:07.586Z,20.92
2022-10-18T07:23:11.640Z,22.30
2022-10-18T07:26:16.968Z,23.45
2022-10-18T07:29:19.387Z,22.58
2022-10-18T07:32:21.920Z,21.05
2022-10-18T07:35:24.335Z,19.83
2022-10-18T07:38:26.677Z,21.63
2022-10-18T07:41:29.995Z,21.15
2022-10-18T07:44:32.374Z,28.75
2022-10-18T07:47:35.374Z,33.28
2022-10-18T07:50:38.042Z,22.17
2022-10-18T07:53:40.798Z,31.60
2022-10-18T07:56:43.171Z,20.67
2022-10-18T07:59:48.020Z,22.98
2022-10-18T08:02:56.452Z,24.90
2022-10-18T08:05:58.915Z,28.08
2022-10-18T08:09:01.576Z,29.03
2022-10-18T08:12:06.673Z,29.50
2022-10-18T08:15:09.350Z,25.42
2022-10-18T08:18:11.884Z,27.35
2022-10-18T08:21:15.787Z,24.80
2022-10-18T08:24:18.122Z,21.43
2022-10-18T08:27:20.623Z,20.52
2022-10-18T08:30:26.049Z,26.13
2022-10-18T08:33:28.390Z,28.58
2022-10-18T08:36:30.759Z,31.42
2022-10-18T08:39:33.253Z,26.20
2022-10-18T08:43:03.158Z,19.73
2022-10-18T08:46:05.572Z,32.13
2022-10-18T08:49:15.566Z,26.38
2022-10-18T08:52:34.733Z,25.48
2022-10-18T08:55:41.301Z,24.97
2022-10-18T08:58:44.409Z,19.45
2022-10-18T09:01:49.693Z,21.25
2022-10-18T09:05:14.503Z,21.25
2022-10-18T09:08:20.282Z,19.70
2022-10-18T09:11:41.999Z,25.90
2022-10-18T09:14:47.388Z,22.02
2022-10-18T09:18:20.477Z,19.98
2022-10-18T09:21:35.314Z,21.13
2022-10-18T09:24:40.727Z,22.88
2022-10-18T09:27:54.521Z,21.47
2022-10-18T09:31:16.753Z,19.48
2022-10-18T09:34:33.512Z,17.10
2022-10-18T09:37:36.087Z,16.50
2022-10-18T09:40:47.177Z,19.48
2022-10-18T09:43:57.336Z,13.43
2022-10-18T09:47:16.511Z,14.63
2022-10-18T09:50:36.866Z,14.65
2022-10-18T09:54:20.948Z,12.95
2022-10-18T09:57:32.068Z,16.42
2022-10-18T10:00:39.218Z,12.53
2022-10-18T10:03:44.808Z,13.35
2022-10-18T10:06:52.110Z,13.93
2022-10-18T10:10:08.930Z,14.77
2022-10-18T10:13:22.883Z,13.05
2022-10-18T10:16:26.795Z,13.83
2022-10-18T10:19:32.623Z,15.75
2022-10-18T10:22:39.419Z,13.90
2022-10-18T10:25:42.642Z,12.65
2022-10-18T10:28:48.649Z,13.02
2022-10-18T10:32:04.011Z,13.23
2022-10-18T10:35:34.059Z,12.68
2022-10-18T10:38:44.866Z,13.70
2022-10-18T10:41:49.098Z,13.10
2022-10-18T10:44:54.606Z,13.13
2022-10-18T10:48:22.767Z,11.53
2022-10-18T10:51:28.233Z,11.88
2022-10-18T10:54:36.467Z,12.20
2022-10-18T10:57:38.906Z,11.82
2022-10-18T11:00:44.146Z,11.38
2022-10-18T11:03:48.667Z,14.37
2022-10-18T11:06:58.017Z,12.18
2022-10-18T11:10:08.376Z,11.30
2022-10-18T11:13:37.000Z,12.02
2022-10-18T11:17:14.644Z,15.05
2022-10-18T11:20:29.918Z,11.93
2022-10-18T11:23:33.652Z,12.77
2022-10-18T11:26:53.454Z,15.30
2022-10-18T11:30:31.459Z,19.67
2022-10-18T11:34:14.552Z,16.35
2022-10-18T11:37:28.561Z,12.10
2022-10-18T11:40:42.745Z,13.43
2022-10-18T11:44:03.164Z,16.30
2022-10-18T11:47:12.044Z,15.88
2022-10-18T11:50:37.816Z,14.02
2022-10-18T11:53:58.757Z,15.07
2022-10-18T11:57:38.687Z,13.10
2022-10-18T12:01:07.404Z,12.20
2022-10-18T12:04:17.892Z,11.65
2022-10-18T12:07:26.793Z,15.75
2022-10-18T12:10:46.044Z,13.87
2022-10-18T12:14:01.253Z,14.88
2022-10-18T12:17:39.843Z,13.85
2022-10-18T12:20:42.508Z,16.55
2022-10-18T12:23:51.627Z,12.95
2022-10-18T12:27:00.812Z,14.37
2022-10-18T12:30:07.532Z,18.30
2022-10-18T12:33:28.824Z,16.92
2022-10-18T12:36:43.536Z,18.02
2022-10-18T12:40:21.695Z,15.90
2022-10-18T12:43:23.144Z,18.20
2022-10-18T12:46:43.392Z,20.50
2022-10-18T12:49:55.981Z,14.27
2022-10-18T12:53:03.832Z,14.15
2022-10-18T12:56:28.144Z,14.15
2022-10-18T12:59:30.434Z,14.13
2022-10-18T13:02:33.124Z,13.90
2022-10-18T13:05:56.220Z,11.25
2022-10-18T13:09:19.952Z,11.02
2022-10-18T13:12:22.249Z,17.42
2022-10-18T13:15:40.848Z,10.07
2022-10-18T13:18:58.438Z,9.85
2022-10-18T13:22:15.189Z,10.25
2022-10-18T13:25:51.550Z,9.73
2022-10-18T13:29:09.648Z,10.20
2022-10-18T13:32:27.612Z,9.20
2022-10-18T13:35:55.841Z,10.95
2022-10-18T13:39:02.486Z,10.20
2022-10-18T13:42:14.121Z,11.15
2022-10-18T13:45:44.578Z,9.02
2022-10-18T13:48:54.676Z,10.00
2022-10-18T13:52:12.377Z,12.35
2022-10-18T13:55:52.105Z,8.10
2022-10-18T13:59:33.517Z,8.50
2022-10-18T14:03:02.564Z,7.70
2022-10-18T14:06:28.575Z,9.17
2022-10-18T14:09:52.350Z,9.93
2022-10-18T14:12:58.481Z,9.98
2022-10-18T14:16:07.309Z,9.27
2022-10-18T14:19:29.620Z,8.35
2022-10-18T14:22:32.062Z,9.43
2022-10-18T14:25:36.233Z,9.13
2022-10-18T14:28:58.491Z,8.60
2022-10-18T14:32:00.979Z,7.70
2022-10-18T14:38:26.328Z,10.67
2022-10-18T14:41:29.979Z,9.82
2022-10-18T14:44:32.370Z,10.95
2022-10-18T14:47:37.293Z,12.85
2022-10-18T14:50:40.308Z,8.65
2022-10-18T14:53:43.032Z,9.23
2022-10-18T14:56:45.719Z,6.50
2022-10-18T14:59:56.935Z,9.05
2022-10-18T15:02:59.314Z,13.63
2022-10-18T15:06:05.107Z,8.85
2022-10-18T15:09:07.538Z,7.57
2022-10-18T15:12:12.972Z,9.02
2022-10-18T15:15:21.431Z,8.82
2022-10-18T15:18:25.723Z,6.82
2022-10-18T15:21:28.264Z,6.97
2022-10-18T15:24:36.500Z,7.60
2022-10-18T15:27:39.768Z,6.38
2022-10-18T15:30:43.122Z,9.07
2022-10-18T15:33:45.736Z,6.38
2022-10-18T15:36:50.722Z,8.77
2022-10-18T15:40:24.163Z,7.80
2022-10-18T15:43:26.523Z,7.85
2022-10-18T15:46:32.003Z,6.22
2022-10-18T15:49:47.632Z,5.90
2022-10-18T15:52:50.155Z,6.40
2022-10-18T15:56:00.334Z,8.80
2022-10-18T15:59:06.647Z,7.85
2022-10-18T16:02:12.812Z,6.88
2022-10-18T16:05:20.838Z,6.68
2022-10-18T16:08:25.502Z,5.78
2022-10-18T16:11:28.420Z,5.43
2022-10-18T16:14:30.942Z,8.23
2022-10-18T16:17:33.572Z,8.02
2022-10-18T16:20:36.336Z,8.35
2022-10-18T16:23:38.680Z,7.68
2022-10-18T16:26:41.439Z,7.73
2022-10-18T16:29:43.763Z,6.47
2022-10-18T16:32:46.622Z,7.72
2022-10-18T16:35:49.506Z,8.63
2022-10-18T16:38:52.041Z,11.15
2022-10-18T16:41:54.523Z,10.23
2022-10-18T16:44:58.592Z,6.97
2022-10-18T16:48:00.922Z,9.52
2022-10-18T16:51:03.893Z,8.05
2022-10-18T16:54:06.241Z,8.95
2022-10-18T16:57:11.680Z,8.53
2022-10-18T17:00:18.707Z,9.02
2022-10-18T17:03:21.422Z,8.48
2022-10-18T17:06:29.379Z,7.13
2022-10-18T17:09:31.828Z,7.55
2022-10-18T17:12:34.460Z,9.10
2022-10-18T17:15:37.122Z,12.77
2022-10-18T17:18:39.487Z,8.07
2022-10-18T17:21:42.443Z,11.50
2022-10-18T17:24:44.931Z,9.05
2022-10-18T17:27:47.312Z,9.67
2022-10-18T17:30:56.652Z,11.68
2022-10-18T17:34:01.488Z,9.77
2022-10-18T17:37:04.805Z,10.02
2022-10-18T17:40:08.239Z,9.13
2022-10-18T17:43:10.796Z,9.37
2022-10-18T17:46:14.265Z,9.13
2022-10-18T17:49:17.154Z,8.13
2022-10-18T17:52:19.471Z,10.05
2022-10-18T17:55:21.796Z,9.68
2022-10-18T17:58:24.243Z,7.77
2022-10-18T18:01:26.764Z,9.35
2022-10-18T18:04:29.224Z,10.20
2022-10-18T18:07:31.722Z,8.32
2022-10-18T18:10:35.055Z,7.75
2022-10-18T18:13:37.492Z,7.67
2022-10-18T18:16:43.002Z,8.98
2022-10-18T18:19:45.360Z,17.13
2022-10-18T18:22:47.786Z,8.48
2022-10-18T18:25:57.472Z,8.82
2022-10-18T18:29:00.290Z,8.60
2022-10-18T18:32:03.403Z,11.90
2022-10-18T18:35:06.083Z,10.02
2022-10-18T18:38:09.100Z,10.55
2022-10-18T18:41:17.559Z,11.63
2022-10-18T18:44:20.908Z,11.67
2022-10-18T18:47:23.494Z,13.07
2022-10-18T18:50:28.194Z,28.17
2022-10-18T18:53:31.102Z,17.35
2022-10-18T18:56:34.048Z,15.10
2022-10-18T18:59:36.492Z,24.87
2022-10-18T19:02:39.000Z,27.75
2022-10-18T19:05:41.420Z,22.52
2022-10-18T19:08:46.992Z,35.63
2022-10-18T19:11:52.344Z,47.55
2022-10-18T19:14:54.802Z,56.60
2022-10-18T19:17:57.262Z,59.85
2022-10-18T19:20:59.702Z,65.68
2022-10-18T19:24:02.708Z,55.28
2022-10-18T19:27:12.292Z,59.97
2022-10-18T19:30:14.836Z,73.47
2022-10-18T19:33:35.508Z,65.00
2022-10-18T19:36:46.279Z,34.10
2022-10-18T19:39:48.974Z,26.15
2022-10-18T19:42:51.373Z,25.75
2022-10-18T19:45:53.745Z,25.70
2022-10-18T19:48:56.100Z,24.10
2022-10-18T19:51:58.652Z,24.52
2022-10-18T19:55:01.049Z,28.30
2022-10-18T19:58:03.552Z,30.15
2022-10-18T20:01:06.455Z,26.93
2022-10-18T20:04:09.974Z,26.90
2022-10-18T20:07:12.354Z,20.40
2022-10-18T20:10:16.977Z,18.92
2022-10-18T20:13:20.025Z,17.65
2022-10-18T20:16:28.087Z,21.43
2022-10-18T20:19:31.527Z,21.33
2022-10-18T20:22:34.268Z,19.90
2022-10-18T20:25:36.853Z,19.85
2022-10-18T20:28:39.775Z,19.45
2022-10-18T20:31:42.160Z,20.93
2022-10-18T20:34:44.556Z,17.92
2022-10-18T20:37:47.397Z,21.75
2022-10-18T20:40:52.221Z,20.50
2022-10-18T20:43:59.947Z,21.20
2022-10-18T20:47:02.289Z,22.60
2022-10-18T20:50:05.128Z,28.40
2022-10-18T20:53:07.605Z,20.02
2022-10-18T20:56:12.773Z,20.00
2022-10-18T20:59:15.243Z,22.17
2022-10-18T21:02:17.615Z,19.93
2022-10-18T21:05:19.963Z,18.92
2022-10-18T21:08:22.384Z,17.25
2022-10-18T21:11:26.020Z,18.08
2022-10-18T21:14:28.448Z,21.38
2022-10-18T21:17:30.936Z,18.80
2022-10-18T21:20:34.660Z,20.50
2022-10-18T21:23:37.409Z,22.08
2022-10-18T21:26:40.383Z,20.27
2022-10-18T21:29:42.715Z,18.77
2022-10-18T21:32:45.125Z,21.50
2022-10-18T21:35:47.473Z,20.23
2022-10-18T21:38:49.864Z,20.17
2022-10-18T21:41:52.317Z,17.02
2022-10-18T21:44:54.725Z,20.08
2022-10-18T21:47:57.092Z,19.97
2022-10-18T21:51:07.901Z,23.13
2022-10-18T21:54:14.982Z,24.17
2022-10-18T21:57:17.339Z,19.52
2022-10-18T22:00:20.834Z,17.38
2022-10-18T22:03:23.388Z,14.30
2022-10-18T22:06:32.053Z,16.42
2022-10-18T22:09:34.587Z,17.92
2022-10-18T22:12:37.065Z,19.77
2022-10-18T22:15:39.465Z,17.23
2022-10-18T22:18:43.381Z,19.23
2022-10-18T22:21:45.891Z,17.02
2022-10-18T22:24:48.284Z,17.65
2022-10-18T22:27:50.769Z,19.30
2022-10-18T22:30:53.232Z,19.80
2022-10-18T22:33:58.494Z,16.27
2022-10-18T22:37:00.975Z,19.75
2022-10-18T22:40:04.320Z,18.77
2022-10-18T22:43:06.731Z,17.73
2022-10-18T22:46:12.206Z,18.73
2022-10-18T22:49:14.796Z,17.53
2022-10-18T22:52:17.272Z,19.48
2022-10-18T22:55:19.663Z,17.83
2022-10-18T22:58:22.242Z,20.58
2022-10-18T23:01:25.316Z,17.73
2022-10-18T23:04:27.962Z,17.60
2022-10-18T23:07:30.383Z,18.33
2022-10-18T23:10:38.206Z,20.85
2022-10-18T23:13:40.662Z,22.77
2022-10-18T23:16:43.382Z,22.95
2022-10-18T23:19:46.264Z,23.40
2022-10-18T23:22:48.707Z,19.02
2022-10-18T23:25:53.904Z,22.08
2022-10-18T23:28:57.314Z,19.08
2022-10-18T23:31:59.755Z,22.27
2022-10-18T23:35:02.158Z,23.67
2022-10-18T23:38:04.598Z,28.38
2022-10-18T23:41:10.151Z,24.77
2022-10-18T23:44:12.682Z,24.27
2022-10-18T23:47:15.576Z,21.17
2022-10-18T23:50:20.503Z,20.77
2022-10-18T23:53:23.285Z,23.33
2022-10-18T23:56:25.888Z,22.52
2022-10-18T23:59:28.313Z,22.85
